Time;durP1;ratioP1;P1;durP2;ratioP2;P2;SDS_P1;SDS_P2;PMS_P1;PMS_P2;Temp;Humidity;BMP_temperature;BMP_pressure;BME280_temperature;BME280_humidity;BME280_pressure;Samples;Min_cycle;Max_cycle;Signal;HPM_P1;HPM_P2
2023/01/27 00:00:31;;;;;;;;;;;1.70;93.70;;;2.08;62.35;98997.44;5025357;28;124342;-72
2023/01/27 00:02:58;;;;;;;;;;;1.60;93.40;;;2.09;62.47;98990.09;5007158;28;123890;-72
2023/01/27 00:05:25;;;;;;;;;;;1.70;93.40;;;2.09;62.01;98999.09;4992764;28;113754;-73
2023/01/27 00:07:51;;;;;;;;;;;1.70;93.40;;;2.10;62.32;98989.03;5027312;28;114866;-72
2023/01/27 00:10:19;;;;;;;;;;;1.70;93.40;;;2.09;62.31;98995.53;5029073;28;124455;-72
2023/01/27 00:15:33;;;;;;;;;;;1.60;93.30;;;2.04;62.49;99000.91;5006708;28;115172;-72
2023/01/27 00:17:59;;;;;;;;;;;1.60;93.20;;;2.04;62.18;98993.56;4990238;28;112842;-72
2023/01/27 00:26:05;;;;;;;;;;;1.60;93.30;;;2.05;62.27;98976.16;5015909;28;115514;-72
2023/01/27 00:28:35;;;;;;;;;;;1.60;93.30;;;2.07;62.22;98976.75;5011518;28;114678;-72
2023/01/27 00:31:01;;;;;;;;;;;1.60;93.30;;;2.08;62.04;98983.81;5017514;28;123936;-72
2023/01/27 00:33:28;;;;;;;;;;;1.70;93.30;;;2.11;61.84;98983.31;5024314;28;124348;-72
2023/01/27 00:35:59;;;;;;;;;;;1.70;93.30;;;2.13;62.28;98980.34;5027709;28;114179;-72
2023/01/27 00:38:31;;;;;;;;;;;1.60;93.20;;;2.12;62.04;98979.53;5027557;28;113835;-72
2023/01/27 00:43:42;;;;;;;;;;;1.70;93.20;;;2.07;61.89;98981.34;5011825;28;125203;-73
2023/01/27 00:46:08;;;;;;;;;;;1.60;93.20;;;2.05;61.97;98984.34;5028437;28;113841;-73
2023/01/27 00:48:35;;;;;;;;;;;1.50;93.20;;;2.04;62.20;98990.84;5028014;28;113137;-72
2023/01/27 00:51:01;;;;;;;;;;;1.60;93.20;;;2.03;61.95;98986.47;4998177;28;124088;-72
2023/01/27 00:53:29;;;;;;;;;;;1.60;93.20;;;2.02;62.08;98986.75;5008464;28;124883;-72
2023/01/27 00:55:57;;;;;;;;;;;1.60;93.30;;;2.01;62.13;98983.16;4993546;28;114147;-72
2023/01/27 00:58:26;;;;;;;;;;;1.60;93.30;;;2.01;62.18;98982.34;4987325;28;114484;-72
2023/01/27 01:00:54;;;;;;;;;;;1.60;93.30;;;2.01;62.48;98983.16;5002426;28;124464;-72
2023/01/27 01:03:21;;;;;;;;;;;1.60;93.30;;;2.02;61.92;98984.84;5028349;28;124110;-73
2023/01/27 01:05:48;;;;;;;;;;;1.60;93.30;;;2.04;62.22;98985.38;5028340;28;114378;-73
2023/01/27 01:08:15;;;;;;;;;;;1.60;93.30;;;2.04;62.50;98988.13;4994386;28;112951;-72
2023/01/27 01:10:41;;;;;;;;;;;1.60;93.30;;;2.06;62.16;98991.41;5022769;28;125401;-73
2023/01/27 01:13:10;;;;;;;;;;;1.60;93.30;;;2.08;62.14;98989.28;5013215;28;123932;-72
2023/01/27 01:15:38;;;;;;;;;;;1.60;93.30;;;2.12;62.04;98995.03;5028619;28;114608;-72
2023/01/27 01:18:05;;;;;;;;;;;1.70;93.30;;;2.13;61.98;98993.97;5029595;28;113819;-72
2023/01/27 01:20:38;;;;;;;;;;;1.70;93.30;;;2.15;62.35;98994.53;5027961;28;124155;-71
2023/01/27 01:23:05;;;;;;;;;;;1.70;93.30;;;2.14;62.08;98993.72;5028182;28;124112;-71
2023/01/27 01:25:33;;;;;;;;;;;1.70;93.30;;;2.16;61.98;98997.00;5028833;28;114177;-71
2023/01/27 01:28:00;;;;;;;;;;;1.70;93.30;;;2.14;62.20;98996.44;5001464;28;112995;-71
2023/01/27 01:30:27;;;;;;;;;;;1.70;93.30;;;2.13;62.24;98996.69;5013066;28;123335;-73
2023/01/27 01:32:53;;;;;;;;;;;1.70;93.30;;;2.12;62.24;98995.88;5006528;28;122956;-71
2023/01/27 01:35:21;;;;;;;;;;;1.70;93.40;;;2.14;62.27;98996.44;5006101;28;114593;-71
2023/01/27 01:37:47;;;;;;;;;;;1.60;93.40;;;2.16;62.14;98999.75;5023217;27;114103;-74
2023/01/27 01:40:13;;;;;;;;;;;1.60;93.40;;;2.19;62.09;98993.78;5028672;28;124059;-73
2023/01/27 01:42:51;;;;;;;;;;;1.60;93.40;;;2.25;62.54;98991.94;5022259;28;123814;-72
2023/01/27 01:45:35;;;;;;;;;;;1.70;93.50;;;2.30;62.09;98991.19;5028684;28;115585;-71
2023/01/27 01:48:11;;;;;;;;;;;1.80;93.50;;;2.32;62.24;98989.03;5028035;28;115073;-70
2023/01/27 01:50:39;;;;;;;;;;;1.80;93.40;;;2.31;61.95;98987.38;5002571;28;124346;-71
2023/01/27 01:53:07;;;;;;;;;;;1.80;93.40;;;2.32;62.09;98989.03;5010209;28;124008;-71
2023/01/27 01:55:35;;;;;;;;;;;1.80;93.40;;;2.31;61.90;98981.91;5028825;28;114606;-71
2023/01/27 01:58:02;;;;;;;;;;;1.80;93.40;;;2.29;62.01;98978.66;5011377;28;113526;-71
2023/01/27 02:00:28;;;;;;;;;;;1.80;93.30;;;2.27;61.81;98976.16;4996276;28;123079;-71
2023/01/27 02:02:54;;;;;;;;;;;1.80;93.30;;;2.21;62.07;98967.09;4998672;28;123557;-71
2023/01/27 02:05:25;;;;;;;;;;;0.40;92.70;;;2.22;62.27;98957.84;4996950;28;115710;-71
2023/01/27 02:08:08;;;;;;;;;;;1.70;93.40;;;2.27;61.78;98959.81;4989735;28;112837;-71
2023/01/27 02:10:35;;;;;;;;;;;1.70;93.40;;;2.25;62.07;98970.13;4993672;28;124204;-71
2023/01/27 02:13:01;;;;;;;;;;;1.70;93.30;;;2.28;61.66;98969.63;4988488;28;124153;-71
2023/01/27 02:15:28;;;;;;;;;;;1.80;93.30;;;2.30;61.63;98969.38;4987399;28;114578;-71
2023/01/27 02:17:55;;;;;;;;;;;1.80;93.30;;;2.31;61.73;98960.97;4972965;28;112980;-72
2023/01/27 02:20:33;;;;;;;;;;;1.80;93.20;;;2.34;61.59;98965.06;4990782;28;123080;-71
2023/01/27 02:23:20;;;;;;;;;;;1.80;93.20;;;2.34;61.60;98965.06;4990974;28;123392;-71
2023/01/27 02:26:07;;;;;;;;;;;1.80;93.20;;;2.37;61.60;98964.56;5006388;28;114611;-71
2023/01/27 02:28:33;;;;;;;;;;;1.90;93.20;;;2.36;61.27;98957.44;4990751;28;114507;-71
2023/01/27 02:31:00;;;;;;;;;;;1.90;93.10;;;2.38;61.81;98956.13;4989376;28;124235;-71
2023/01/27 02:33:26;;;;;;;;;;;1.90;93.10;;;2.40;61.44;98955.88;4986848;28;123816;-71
2023/01/27 02:35:58;;;;;;;;;;;1.90;93.00;;;2.41;61.51;98952.06;4991948;28;114654;-72
2023/01/27 02:38:27;;;;;;;;;;;1.90;93.00;;;2.40;61.01;98953.13;4989508;28;115551;-71
2023/01/27 02:40:56;;;;;;;;;;;1.90;92.90;;;2.41;61.18;98952.06;4992339;28;121908;-71
2023/01/27 02:43:23;;;;;;;;;;;1.90;92.90;;;2.38;61.07;98958.03;4989681;28;123982;-71
2023/01/27 02:45:49;;;;;;;;;;;1.90;92.80;;;2.38;60.88;98967.03;4991927;28;113614;-71
2023/01/27 02:48:15;;;;;;;;;;;1.90;92.80;;;2.41;61.16;98961.06;4990122;28;114432;-71
2023/01/27 02:50:41;;;;;;;;;;;1.90;92.90;;;2.44;61.04;98965.16;4989185;28;124021;-71
2023/01/27 02:53:08;;;;;;;;;;;1.90;92.80;;;2.43;60.75;98952.63;4991340;28;125208;-71
2023/01/27 02:55:34;;;;;;;;;;;1.90;92.70;;;2.40;60.53;98956.69;4975830;28;113026;-71
2023/01/27 02:58:01;;;;;;;;;;;1.90;92.70;;;2.40;60.73;98959.41;4990750;28;114816;-71
2023/01/27 03:00:27;;;;;;;;;;;1.90;92.60;;;2.39;60.73;98962.38;4989993;28;123996;-71
2023/01/27 03:02:54;;;;;;;;;;;1.90;92.60;;;2.39;60.54;98951.47;4974610;28;124617;-71
2023/01/27 03:05:20;;;;;;;;;;;1.90;92.60;;;2.39;60.61;98941.41;4989897;28;114103;-71
2023/01/27 03:07:46;;;;;;;;;;;1.90;92.60;;;2.39;60.27;98944.16;4990003;28;113664;-71
2023/01/27 03:10:13;;;;;;;;;;;1.90;92.50;;;2.41;60.28;98941.16;5016065;28;124126;-71
2023/01/27 03:12:39;;;;;;;;;;;1.90;92.50;;;2.42;60.35;98945.53;5025912;28;125236;-71
2023/01/27 03:20:36;;;;;;;;;;;2.00;92.50;;;2.47;60.21;98948.28;5023555;28;124897;-70
2023/01/27 03:23:02;;;;;;;;;;;1.90;92.30;;;2.45;60.19;98955.94;5014104;28;123536;-71
2023/01/27 03:25:28;;;;;;;;;;;2.00;92.30;;;2.42;60.06;98956.44;4997918;28;114436;-71
2023/01/27 03:27:55;;;;;;;;;;;2.50;92.60;;;2.41;59.98;98957.50;5032834;28;114257;-71
2023/01/27 03:30:22;;;;;;;;;;;1.90;92.30;;;2.38;59.96;98949.84;5028728;27;124276;-71
2023/01/27 03:32:48;;;;;;;;;;;1.90;92.30;;;2.37;59.76;98956.38;5014445;28;123226;-71
2023/01/27 03:35:15;;;;;;;;;;;1.80;92.30;;;2.34;60.11;98960.44;5027570;28;114300;-71
2023/01/27 03:48:42;;;;;;;;;;;1.80;92.30;;;2.27;60.58;98965.25;5023483;28;114592;-72
2023/01/27 03:51:09;;;;;;;;;;;1.80;92.30;;;2.30;60.35;98970.19;5022994;28;124306;-71
2023/01/27 03:53:36;;;;;;;;;;;1.80;92.40;;;2.33;60.06;98958.78;5011763;28;124007;-71
2023/01/27 03:56:04;;;;;;;;;;;1.80;92.40;;;2.38;60.01;98956.13;5014695;28;114965;-71
2023/01/27 03:58:35;;;;;;;;;;;1.90;92.40;;;2.41;60.00;98961.06;5030237;28;113839;-71
2023/01/27 04:01:22;;;;;;;;;;;1.90;92.40;;;2.48;60.07;98970.97;5030611;28;124166;-71
2023/01/27 04:09:28;;;;;;;;;;;2.00;92.40;;;2.56;60.57;98965.88;5004401;28;113900;-71
2023/01/27 04:11:59;;;;;;;;;;;2.10;92.40;;;2.60;60.62;98958.81;5011024;28;124839;-71
2023/01/27 04:14:30;;;;;;;;;;;2.10;92.40;;;2.63;60.30;98963.78;5029491;28;123888;-71
2023/01/27 04:17:02;;;;;;;;;;;2.10;92.30;;;2.64;60.28;98965.41;5029027;28;115399;-71
2023/01/27 04:19:28;;;;;;;;;;;2.20;92.30;;;2.65;60.00;98968.94;4998924;28;113985;-71
2023/01/27 04:21:55;;;;;;;;;;;2.20;92.30;;;2.67;60.12;98963.25;5003590;28;124695;-71
2023/01/27 04:24:22;;;;;;;;;;;2.20;92.30;;;2.65;59.85;98967.03;5028045;28;123742;-71
2023/01/27 04:26:58;;;;;;;;;;;2.20;92.20;;;2.67;60.06;98974.16;5028966;28;114362;-71
2023/01/27 04:29:30;;;;;;;;;;;2.20;92.30;;;2.66;60.03;98978.81;5011474;28;113861;-71
2023/01/27 04:31:56;;;;;;;;;;;2.20;92.20;;;2.63;60.01;98984.75;5008281;28;123507;-71
2023/01/27 04:34:24;;;;;;;;;;;2.20;92.20;;;2.62;59.95;98983.94;5004758;28;123051;-71
2023/01/27 04:36:51;;;;;;;;;;;2.20;92.20;;;2.62;60.13;98977.66;4972507;28;114367;-71
2023/01/27 04:39:17;;;;;;;;;;;2.20;92.20;;;2.65;59.91;98982.59;4973815;28;113400;-71
2023/01/27 04:41:44;;;;;;;;;;;2.20;92.20;;;2.66;59.81;98984.25;5002245;28;124422;-72
2023/01/27 04:44:11;;;;;;;;;;;2.20;92.20;;;2.65;60.04;98971.69;4996517;28;124056;-71
2023/01/27 04:46:38;;;;;;;;;;;2.20;92.20;;;2.64;59.63;98970.88;5007857;28;114553;-72
2023/01/27 04:49:05;;;;;;;;;;;2.20;92.20;;;2.64;59.91;98965.41;4982149;28;113650;-71
2023/01/27 04:51:32;;;;;;;;;;;2.20;92.10;;;2.62;59.97;98975.75;4999212;28;124831;-71
2023/01/27 04:53:58;;;;;;;;;;;2.20;92.10;;;2.60;60.00;98975.16;4975746;28;123092;-71
2023/01/27 04:56:27;;;;;;;;;;;2.20;92.10;;;2.59;59.96;98979.00;4990199;28;114743;-71
2023/01/27 04:58:57;;;;;;;;;;;2.10;92.00;;;2.54;59.88;98973.47;4978663;28;112672;-72
2023/01/27 05:01:23;;;;;;;;;;;2.10;92.10;;;2.51;60.13;98971.25;4993262;28;123368;-71
2023/01/27 05:03:51;;;;;;;;;;;2.10;92.10;;;2.49;60.34;98980.78;5025627;27;124422;-71
2023/01/27 05:06:17;;;;;;;;;;;2.10;92.10;;;2.47;60.26;98981.00;5002788;28;115442;-71
2023/01/27 05:08:43;;;;;;;;;;;2.10;92.10;;;2.45;60.21;98977.75;5009953;28;115125;-72
2023/01/27 05:11:10;;;;;;;;;;;2.10;92.10;;;2.46;60.19;98976.66;4994287;28;123466;-71
2023/01/27 05:13:37;;;;;;;;;;;2.00;92.20;;;2.48;60.48;98981.88;5026535;28;124162;-71
2023/01/27 05:16:09;;;;;;;;;;;1.90;92.10;;;2.51;60.11;98989.53;4996010;28;113533;-71
2023/01/27 05:18:35;;;;;;;;;;;2.10;92.20;;;2.53;60.02;98982.75;5028525;28;113834;-71
2023/01/27 05:21:02;;;;;;;;;;;2.10;92.30;;;2.53;60.04;98976.47;5011557;28;123939;-72
2023/01/27 05:23:35;;;;;;;;;;;2.00;92.10;;;2.46;60.09;98976.66;5026951;28;124150;-71
2023/01/27 05:26:03;;;;;;;;;;;2.00;92.20;;;2.45;60.14;98979.66;5010560;28;114666;-72
2023/01/27 05:28:29;;;;;;;;;;;2.00;92.30;;;2.45;60.64;98985.94;4995091;28;112837;-71
2023/01/27 05:31:03;;;;;;;;;;;2.00;92.30;;;2.46;60.18;98984.84;5011045;28;123389;-72
2023/01/27 05:33:30;;;;;;;;;;;1.90;92.30;;;2.44;60.30;99000.63;4990784;28;122602;-71
2023/01/27 05:36:04;;;;;;;;;;;1.90;92.30;;;2.45;60.31;99005.00;5021786;28;114631;-71
2023/01/27 05:38:30;;;;;;;;;;;1.90;92.30;;;2.43;60.34;98990.81;5029231;28;112736;-72
2023/01/27 05:41:00;;;;;;;;;;;1.90;92.40;;;2.45;60.30;98998.75;5028150;28;124564;-74
2023/01/27 05:43:33;;;;;;;;;;;1.90;92.40;;;2.43;60.35;99015.34;4993457;28;123586;-74
2023/01/27 05:46:05;;;;;;;;;;;1.80;92.40;;;2.40;59.95;99018.59;4994513;28;114563;-75
2023/01/27 05:48:36;;;;;;;;;;;1.70;92.20;;;2.36;60.24;99017.44;5008550;28;113714;-73
2023/01/27 05:51:04;;;;;;;;;;;1.80;92.30;;;2.30;60.35;99013.81;4993604;28;124230;-74
2023/01/27 05:53:30;;;;;;;;;;;1.80;92.30;;;2.32;60.34;99010.84;5010032;28;124099;-74
2023/01/27 05:55:57;;;;;;;;;;;1.80;92.30;;;2.34;60.48;99005.97;5015848;28;115367;-74
2023/01/27 05:58:25;;;;;;;;;;;1.80;92.30;;;2.33;60.44;99010.56;5025484;28;114568;-73
2023/01/27 06:00:52;;;;;;;;;;;1.80;92.30;;;2.35;60.12;99011.16;5013277;28;124463;-74
2023/01/27 06:03:19;;;;;;;;;;;1.80;92.30;;;2.38;60.53;99012.56;5034719;28;123596;-74
2023/01/27 06:05:56;;;;;;;;;;;1.90;92.40;;;2.45;60.24;99004.19;5013611;28;114507;-74
2023/01/27 06:08:24;;;;;;;;;;;1.90;92.30;;;2.46;60.31;99009.38;5014063;28;113700;-74
2023/01/27 06:10:52;;;;;;;;;;;2.00;92.30;;;2.50;60.03;99007.81;5032003;28;123779;-73
2023/01/27 06:13:20;;;;;;;;;;;2.00;92.30;;;2.51;60.28;99006.72;5028559;28;124775;-73
2023/01/27 06:15:48;;;;;;;;;;;2.00;92.40;;;2.52;61.00;99002.91;5013238;28;114998;-73
2023/01/27 06:18:16;;;;;;;;;;;2.00;92.50;;;2.53;60.78;99001.84;5027585;28;113788;-74
2023/01/27 06:20:43;;;;;;;;;;;2.00;92.60;;;2.55;61.05;99013.31;5029906;28;124447;-73
2023/01/27 06:23:12;;;;;;;;;;;2.10;92.90;;;2.59;61.17;99014.44;5034165;28;123707;-74
2023/01/27 06:25:40;;;;;;;;;;;2.10;92.90;;;2.72;62.29;99015.16;4995483;28;113071;-74
2023/01/27 06:28:07;;;;;;;;;;;2.10;93.30;;;2.82;62.38;99012.50;5028288;28;113686;-74
2023/01/27 06:30:35;;;;;;;;;;;2.20;93.50;;;2.86;62.17;99011.75;4990004;28;123269;-71
2023/01/27 06:33:02;;;;;;;;;;;2.30;93.60;;;2.88;61.69;99008.78;4989947;28;123913;-74
2023/01/27 06:35:30;;;;;;;;;;;2.30;93.40;;;2.85;61.39;99010.09;4985279;28;114453;-74
2023/01/27 06:37:58;;;;;;;;;;;2.30;93.10;;;2.77;60.70;99007.00;4988885;28;113690;-76
2023/01/27 06:40:43;;;;;;;;;;;2.20;92.70;;;2.73;59.97;99008.59;4955611;28;124001;-77
2023/01/27 06:43:13;;;;;;;;;;;2.20;92.50;;;2.63;59.95;99012.88;4987611;28;124517;-73
2023/01/27 06:45:39;;;;;;;;;;;2.00;92.50;;;2.58;60.40;99014.69;4964034;28;114642;-73
2023/01/27 06:48:07;;;;;;;;;;;2.00;92.50;;;2.56;60.52;99027.78;4981847;28;116039;-72
2023/01/27 06:50:34;;;;;;;;;;;2.00;92.50;;;2.53;60.39;99029.09;4974301;28;124062;-72
2023/01/27 06:53:02;;;;;;;;;;;2.00;92.50;;;2.52;60.39;99043.81;4973285;28;123465;-74
2023/01/27 06:55:30;;;;;;;;;;;2.00;92.40;;;2.51;60.38;99046.81;4987206;28;114776;-74
2023/01/27 06:57:56;;;;;;;;;;;2.00;92.40;;;2.49;60.44;99048.94;4969855;28;113929;-72
2023/01/27 07:00:24;;;;;;;;;;;1.50;92.20;;;2.50;60.37;99035.06;4955893;28;123449;-71
2023/01/27 07:02:50;;;;;;;;;;;2.00;92.40;;;2.50;60.39;99048.72;5031769;28;124866;-72
2023/01/27 07:05:16;;;;;;;;;;;2.00;92.40;;;2.50;60.42;99054.16;5029373;27;114055;-72
2023/01/27 07:07:42;;;;;;;;;;;2.00;92.40;;;2.50;60.27;99061.50;5029616;28;113912;-72
2023/01/27 07:10:09;;;;;;;;;;;2.00;92.40;;;2.48;60.38;99064.50;5010561;28;123199;-72
2023/01/27 07:12:36;;;;;;;;;;;2.00;92.40;;;2.52;60.49;99064.81;5011461;28;123802;-72
2023/01/27 07:15:05;;;;;;;;;;;2.00;92.40;;;2.54;60.23;99070.84;5004435;28;115091;-72
2023/01/27 07:17:31;;;;;;;;;;;2.00;92.40;;;2.56;60.35;99071.41;5011737;28;113520;-72
2023/01/27 07:19:57;;;;;;;;;;;3.20;92.90;;;2.58;60.25;99077.41;5008836;28;124133;-71
2023/01/27 07:22:23;;;;;;;;;;;2.00;92.30;;;2.57;60.00;99075.78;5008399;28;123550;-71
2023/01/27 07:24:50;;;;;;;;;;;2.10;92.30;;;2.53;59.92;99083.66;5008822;28;114154;-71
2023/01/27 07:27:16;;;;;;;;;;;2.00;92.30;;;2.52;60.21;99076.53;5008393;28;113771;-72
2023/01/27 07:29:43;;;;;;;;;;;2.00;92.30;;;2.50;59.92;99086.88;5000294;28;124332;-71
2023/01/27 07:32:09;;;;;;;;;;;2.00;92.30;;;2.49;60.19;99079.75;5008696;28;124257;-72
2023/01/27 07:34:35;;;;;;;;;;;2.00;92.30;;;2.52;60.16;99086.63;5009368;28;115342;-71
2023/01/27 07:37:04;;;;;;;;;;;2.00;92.30;;;2.52;60.02;99081.97;5006432;28;114680;-71
2023/01/27 07:39:32;;;;;;;;;;;2.00;92.30;;;2.52;60.13;99089.34;4994248;28;123764;-71
2023/01/27 07:42:02;;;;;;;;;;;2.00;92.30;;;2.51;60.18;99080.34;5007194;28;124061;-71
2023/01/27 07:44:28;;;;;;;;;;;2.00;92.30;;;2.53;60.13;99083.66;5009749;28;114396;-71
2023/01/27 07:46:57;;;;;;;;;;;2.00;92.50;;;2.57;60.59;99083.97;5009178;28;114192;-72
2023/01/27 07:49:23;;;;;;;;;;;2.00;92.60;;;2.59;60.63;99093.53;5007755;28;124053;-71
2023/01/27 07:51:49;;;;;;;;;;;2.10;92.50;;;2.59;60.43;99096.28;5008329;28;123771;-71
2023/01/27 07:54:16;;;;;;;;;;;2.00;92.50;;;2.59;60.28;99090.00;5008466;28;114254;-72
2023/01/27 07:56:42;;;;;;;;;;;2.00;92.40;;;2.58;60.50;99101.97;5006551;28;113433;-71
2023/01/27 07:59:10;;;;;;;;;;;2.10;92.40;;;2.59;60.42;99107.19;5002083;28;124295;-72
2023/01/27 08:01:36;;;;;;;;;;;2.10;92.40;;;2.59;59.99;99107.19;5007726;28;123841;-71
2023/01/27 08:04:03;;;;;;;;;;;2.00;92.30;;;2.56;60.14;99115.88;5006432;28;114862;-71
2023/01/27 08:06:29;;;;;;;;;;;2.00;92.30;;;2.56;60.48;99112.31;5007605;28;113517;-71
2023/01/27 08:08:55;;;;;;;;;;;2.00;92.40;;;2.59;60.51;99109.91;5009659;28;124045;-70
2023/01/27 08:11:21;;;;;;;;;;;2.10;92.40;;;2.62;60.22;99108.56;5023672;27;124075;-71
2023/01/27 08:13:48;;;;;;;;;;;2.10;92.30;;;2.60;59.88;99100.63;5010212;28;114601;-70
2023/01/27 08:16:14;;;;;;;;;;;2.10;92.00;;;2.60;59.78;99110.72;5008627;28;112812;-70
2023/01/27 08:18:41;;;;;;;;;;;3.30;92.60;;;2.55;59.88;99108.78;5008269;28;124254;-73
2023/01/27 08:21:10;;;;;;;;;;;2.00;91.80;;;2.51;59.72;99106.81;5005898;28;122816;-74
2023/01/27 08:23:36;;;;;;;;;;;2.00;92.00;;;2.48;59.50;99108.13;4988822;28;114743;-73
2023/01/27 08:26:04;;;;;;;;;;;2.00;92.00;;;2.47;59.53;99111.91;5026833;28;114919;-71
2023/01/27 08:28:33;;;;;;;;;;;1.90;92.00;;;2.43;59.45;99127.13;5027656;28;124360;-71
2023/01/27 08:31:07;;;;;;;;;;;1.90;92.00;;;2.43;59.59;99132.59;5011782;28;123801;-70
2023/01/27 08:33:34;;;;;;;;;;;1.90;92.10;;;2.39;60.06;99125.97;4997107;28;113722;-70
2023/01/27 08:36:07;;;;;;;;;;;1.80;92.00;;;2.39;59.51;99126.84;5026552;28;113638;-71
2023/01/27 08:38:34;;;;;;;;;;;1.80;92.10;;;2.43;59.80;99132.59;5014160;28;123505;-70
2023/01/27 08:41:12;;;;;;;;;;;1.90;92.20;;;2.48;59.60;99140.84;5022411;28;123686;-73
2023/01/27 08:43:39;;;;;;;;;;;1.90;92.10;;;2.46;59.80;99136.72;4999998;28;113712;-73
2023/01/27 08:46:06;;;;;;;;;;;1.90;92.00;;;2.48;60.07;99129.94;5018854;28;113183;-73
2023/01/27 08:48:33;;;;;;;;;;;1.90;92.10;;;2.48;59.66;99129.13;4988596;28;123324;-72
2023/01/27 08:51:00;;;;;;;;;;;2.00;91.90;;;2.48;59.83;99140.84;5010271;28;123933;-72
2023/01/27 08:53:27;;;;;;;;;;;2.00;91.90;;;2.48;59.31;99145.50;5006886;28;114330;-73
2023/01/27 08:55:55;;;;;;;;;;;1.90;91.90;;;2.48;59.08;99143.56;4997738;28;113762;-71
2023/01/27 08:58:22;;;;;;;;;;;1.90;91.90;;;2.48;59.24;99135.41;5027131;27;124864;-72
2023/01/27 09:00:48;;;;;;;;;;;2.00;91.90;;;2.50;59.48;99146.88;4993934;28;123732;-71
2023/01/27 09:03:15;;;;;;;;;;;2.00;91.80;;;2.51;59.31;99144.97;5010185;28;114392;-71
2023/01/27 09:05:42;;;;;;;;;;;2.00;91.80;;;2.49;59.10;99156.13;5027542;28;113939;-72
2023/01/27 09:08:08;;;;;;;;;;;1.90;91.70;;;2.52;59.28;99155.63;5023651;28;124098;-71
2023/01/27 09:10:41;;;;;;;;;;;2.00;91.70;;;2.53;58.78;99140.94;5012413;28;123696;-71
2023/01/27 09:13:08;;;;;;;;;;;2.00;91.70;;;2.50;58.71;99141.44;5021512;28;115378;-71
2023/01/27 09:15:37;;;;;;;;;;;1.90;91.50;;;2.51;58.75;99143.06;4991163;28;113829;-73
2023/01/27 09:18:05;;;;;;;;;;;1.90;91.60;;;2.53;58.61;99142.84;4997185;28;123441;-72
2023/01/27 09:20:50;;;;;;;;;;;2.00;91.60;;;2.60;58.73;99147.00;5029403;28;123157;-71
2023/01/27 09:23:16;;;;;;;;;;;2.00;91.60;;;2.59;58.56;99131.72;5015053;28;113872;-74
2023/01/27 09:25:42;;;;;;;;;;;2.10;91.50;;;2.60;58.56;99138.81;5028211;28;113729;-70
2023/01/27 09:28:15;;;;;;;;;;;2.10;91.50;;;2.60;58.36;99144.28;5004118;28;124089;-73
2023/01/27 09:30:47;;;;;;;;;;;2.00;91.30;;;2.60;58.55;99149.72;5032305;27;124063;-74
2023/01/27 09:33:14;;;;;;;;;;;2.10;91.40;;;2.60;58.34;99147.00;5023161;28;114490;-71
2023/01/27 09:35:47;;;;;;;;;;;2.10;91.40;;;2.59;58.27;99137.19;5017892;28;112912;-72
2023/01/27 09:38:18;;;;;;;;;;;2.00;91.30;;;2.60;58.39;99144.28;5011936;28;124385;-72
2023/01/27 09:41:09;;;;;;;;;;;2.10;91.40;;;2.65;58.20;99140.81;5039458;27;124030;-73
2023/01/27 09:44:00;;;;;;;;;;;2.10;91.40;;;2.67;58.31;99152.28;5027654;28;115257;-73
2023/01/27 09:46:47;;;;;;;;;;;2.10;91.30;;;2.70;58.42;99150.97;5024127;28;114171;-74
2023/01/27 09:49:26;;;;;;;;;;;2.20;91.30;;;2.71;57.98;99144.41;5026346;28;124578;-71
2023/01/27 09:52:07;;;;;;;;;;;2.20;91.30;;;2.73;58.32;99153.19;5006062;28;123774;-71
2023/01/27 09:55:05;;;;;;;;;;;2.20;91.30;;;2.74;58.56;99150.22;5017417;28;114366;-70
2023/01/27 09:57:37;;;;;;;;;;;2.20;91.30;;;2.72;58.06;99151.53;4998402;28;113761;-72
2023/01/27 10:00:26;;;;;;;;;;;2.20;91.10;;;2.69;57.94;99152.03;5013070;28;124319;-70
2023/01/27 10:03:35;;;;;;;;;;;2.10;91.10;;;2.54;58.03;99158.09;5018452;28;124169;-70
2023/01/27 10:06:23;;;;;;;;;;;1.90;91.10;;;2.48;58.19;99151.75;4942949;28;114050;-71
2023/01/27 10:09:02;;;;;;;;;;;1.90;91.30;;;2.51;58.97;99151.25;5002798;28;114897;-72
2023/01/27 10:11:49;;;;;;;;;;;1.90;91.40;;;2.56;58.56;99148.59;5016503;28;124154;-71
2023/01/27 10:14:30;;;;;;;;;;;2.00;91.40;;;2.61;58.53;99154.13;5004897;28;123299;-73
2023/01/27 10:17:01;;;;;;;;;;;2.00;91.40;;;2.63;58.36;99149.25;5012544;28;114420;-71
2023/01/27 10:20:00;;;;;;;;;;;2.10;91.30;;;2.69;58.55;99152.03;4995241;28;113429;-71
2023/01/27 10:22:44;;;;;;;;;;;2.10;91.30;;;2.71;58.45;99150.69;4985947;28;124732;-72
2023/01/27 10:25:32;;;;;;;;;;;2.30;91.40;;;2.76;58.23;99144.50;5022830;28;123262;-72
2023/01/27 10:28:04;;;;;;;;;;;2.20;91.20;;;2.73;58.14;99154.00;5023626;28;114540;-70
2023/01/27 10:30:35;;;;;;;;;;;2.20;91.20;;;2.74;58.01;99152.09;4992056;28;112894;-70
2023/01/27 10:33:16;;;;;;;;;;;2.20;91.10;;;2.76;57.88;99152.69;5022155;28;124395;-71
2023/01/27 10:35:52;;;;;;;;;;;2.20;91.10;;;2.75;58.38;99140.13;5016213;28;124258;-71
2023/01/27 10:38:36;;;;;;;;;;;2.20;91.10;;;2.77;57.82;99149.72;5004563;28;114993;-72
2023/01/27 10:41:28;;;;;;;;;;;2.20;91.00;;;2.78;57.79;99143.16;5003449;28;113630;-71
2023/01/27 10:44:01;;;;;;;;;;;2.20;91.00;;;2.77;57.44;99146.16;5024346;28;124404;-71
2023/01/27 10:47:00;;;;;;;;;;;2.20;90.90;;;2.79;57.69;99157.63;5028846;28;124038;-71
2023/01/27 10:49:30;;;;;;;;;;;2.30;90.90;;;2.77;57.44;99157.91;5024598;28;114388;-72
2023/01/27 10:52:08;;;;;;;;;;;2.30;90.80;;;2.80;57.65;99162.03;5013810;28;112650;-71
2023/01/27 10:54:45;;;;;;;;;;;2.20;90.80;;;2.81;57.31;99161.75;5001623;28;124435;-69
2023/01/27 10:57:24;;;;;;;;;;;2.30;90.80;;;2.78;57.56;99158.72;5012410;28;124589;-69
2023/01/27 11:00:13;;;;;;;;;;;2.20;90.80;;;2.81;57.53;99153.56;5011046;28;115163;-69
2023/01/27 11:02:46;;;;;;;;;;;2.30;90.90;;;2.85;57.68;99154.72;5000009;28;114257;-69
2023/01/27 11:05:23;;;;;;;;;;;3.40;91.30;;;2.92;57.60;99150.97;5009820;28;123638;-72
2023/01/27 11:08:03;;;;;;;;;;;2.40;90.80;;;2.99;57.79;99148.88;5005712;28;124052;-70
2023/01/27 11:10:36;;;;;;;;;;;2.40;90.80;;;3.01;57.33;99146.72;5012018;27;113772;-72
2023/01/27 11:13:04;;;;;;;;;;;2.50;90.80;;;3.03;57.20;99148.09;5027593;28;113750;-72
2023/01/27 11:15:35;;;;;;;;;;;2.50;90.80;;;3.07;56.98;99153.91;5003657;28;124253;-73
2023/01/27 11:18:12;;;;;;;;;;;2.50;90.70;;;3.13;57.04;99149.31;5009340;28;124815;-72
2023/01/27 11:20:42;;;;;;;;;;;2.50;90.70;;;3.15;56.88;99148.00;5030499;28;114417;-72
2023/01/27 11:23:08;;;;;;;;;;;2.60;90.80;;;3.21;56.74;99144.22;5017264;28;112120;-71
2023/01/27 11:25:54;;;;;;;;;;;2.60;90.70;;;3.27;56.46;99153.28;5027008;28;124399;-70
2023/01/27 11:28:38;;;;;;;;;;;2.60;90.60;;;3.25;56.57;99145.38;5008985;28;124216;-70
2023/01/27 11:31:31;;;;;;;;;;;2.70;90.40;;;3.25;56.51;99145.38;5011745;28;115821;-71
2023/01/27 11:34:09;;;;;;;;;;;3.80;90.90;;;3.24;56.42;99138.25;4944003;28;112671;-71
2023/01/27 11:36:36;;;;;;;;;;;2.70;90.40;;;3.20;56.54;99137.13;4933782;28;124178;-70
2023/01/27 11:39:05;;;;;;;;;;;4.20;91.00;;;3.21;56.38;99133.31;4932485;28;124251;-71
2023/01/27 11:41:33;;;;;;;;;;;2.70;90.50;;;3.24;56.51;99129.25;4949860;28;114475;-72
2023/01/27 11:44:04;;;;;;;;;;;2.70;90.50;;;3.29;56.54;99134.75;4935503;28;113183;-71
2023/01/27 11:46:31;;;;;;;;;;;2.70;90.50;;;3.31;56.25;99132.59;4946859;28;124050;-71
2023/01/27 11:48:57;;;;;;;;;;;2.80;90.40;;;3.28;56.72;99133.13;4946616;28;124232;-71
2023/01/27 11:51:27;;;;;;;;;;;2.70;90.30;;;3.29;56.96;99130.13;4948672;28;115527;-71
2023/01/27 11:54:08;;;;;;;;;;;2.70;90.40;;;3.35;56.75;99120.06;4949408;28;114908;-70
2023/01/27 11:56:35;;;;;;;;;;;2.80;90.40;;;3.32;56.38;99131.50;4946915;28;124359;-71
2023/01/27 11:59:08;;;;;;;;;;;2.80;90.30;;;3.29;56.53;99118.38;4931376;28;123888;-71
2023/01/27 12:01:45;;;;;;;;;;;2.70;90.30;;;3.30;56.31;99128.22;4931349;28;114322;-70
2023/01/27 12:04:16;;;;;;;;;;;2.70;90.30;;;3.27;56.25;99117.81;4939850;28;113273;-70
2023/01/27 12:06:47;;;;;;;;;;;2.70;90.30;;;3.27;56.05;99126.00;4945714;28;124272;-70
2023/01/27 12:09:34;;;;;;;;;;;2.70;90.30;;;3.29;56.30;99110.19;4932962;28;122930;-71
2023/01/27 12:12:20;;;;;;;;;;;2.70;90.40;;;3.31;56.27;99108.03;4997323;28;113663;-71